Time;durP1;ratioP1;P1;durP2;ratioP2;P2;SDS_P1;SDS_P2;PMS_P1;PMS_P2;Temp;Humidity;BMP_temperature;BMP_pressure;BME280_temperature;BME280_humidity;BME280_pressure;Samples;Min_cycle;Max_cycle;Signal;HPM_P1;HPM_P2
2021/03/03 00:01:31;;;;;;;41.53;19.58;;;-0.30;99.90;;;;;;5061159;28;20032;-72
2021/03/03 00:03:57;;;;;;;44.63;19.27;;;-0.30;99.90;;;;;;5079680;28;20058;-72
2021/03/03 00:06:23;;;;;;;52.33;20.15;;;-0.20;99.90;;;;;;5078284;28;20484;-71
2021/03/03 00:08:48;;;;;;;45.33;19.80;;;-0.30;99.90;;;;;;5060807;28;20032;-72
2021/03/03 00:11:14;;;;;;;44.03;19.58;;;-0.30;99.90;;;;;;5061370;28;20031;-72
2021/03/03 00:13:40;;;;;;;41.28;19.23;;;-0.30;99.90;;;;;;5079362;28;20566;-72
2021/03/03 00:16:06;;;;;;;42.03;20.05;;;-0.30;99.90;;;;;;5079497;28;20094;-71
2021/03/03 00:18:32;;;;;;;42.40;18.92;;;-0.30;99.90;;;;;;5060735;28;20032;-72
2021/03/03 00:20:57;;;;;;;48.60;20.30;;;-0.30;99.90;;;;;;5061946;28;20038;-72
2021/03/03 00:23:23;;;;;;;47.25;20.45;;;-0.30;99.90;;;;;;5079577;28;20442;-72
2021/03/03 00:25:49;;;;;;;44.17;20.33;;;-0.40;99.90;;;;;;5078063;28;20746;-71
2021/03/03 00:28:14;;;;;;;48.80;20.38;;;-0.30;99.90;;;;;;5042116;28;20093;-71
2021/03/03 00:30:40;;;;;;;49.55;21.20;;;-0.30;99.90;;;;;;5079014;28;20035;-72
2021/03/03 00:33:06;;;;;;;48.58;21.58;;;-0.20;99.90;;;;;;5078407;28;20504;-71
2021/03/03 00:35:32;;;;;;;45.28;20.67;;;-0.20;99.90;;;;;;5060709;28;20556;-71
2021/03/03 00:37:57;;;;;;;45.42;19.63;;;-0.40;99.90;;;;;;5077794;28;20032;-72
2021/03/03 00:40:23;;;;;;;42.88;19.50;;;-0.50;99.90;;;;;;5078190;28;20404;-72
2021/03/03 00:42:49;;;;;;;54.92;24.70;;;-0.60;99.90;;;;;;5079123;28;20063;-72
2021/03/03 00:45:15;;;;;;;83.18;37.25;;;-0.60;99.90;;;;;;5078878;28;20870;-72
2021/03/03 00:47:40;;;;;;;73.90;33.03;;;-0.60;99.90;;;;;;5060865;28;20078;-72
2021/03/03 00:50:10;;;;;;;69.65;31.00;;;-0.80;99.90;;;;;;5077254;28;20040;-71
2021/03/03 00:52:40;;;;;;;61.35;29.17;;;-0.90;99.90;;;;;;5076901;28;20564;-71
2021/03/03 00:55:08;;;;;;;76.93;34.67;;;-0.90;99.90;;;;;;5078373;28;20037;-71
2021/03/03 00:57:38;;;;;;;85.72;34.85;;;-1.00;99.90;;;;;;5078683;28;20492;-71
2021/03/03 01:00:05;;;;;;;75.22;32.10;;;-1.00;99.90;;;;;;5043676;28;20035;-72
2021/03/03 01:02:30;;;;;;;70.57;30.63;;;-0.90;99.90;;;;;;5059624;28;20078;-72
2021/03/03 01:04:56;;;;;;;73.15;31.00;;;-0.80;99.90;;;;;;5055591;28;20142;-72
2021/03/03 01:07:22;;;;;;;72.07;30.88;;;-0.80;99.90;;;;;;5059098;28;20028;-72
2021/03/03 01:09:49;;;;;;;70.47;30.25;;;-0.80;99.90;;;;;;5060191;28;20024;-72
2021/03/03 01:12:15;;;;;;;74.72;28.75;;;-0.80;99.90;;;;;;5079236;28;20530;-72
2021/03/03 01:14:42;;;;;;;68.55;29.48;;;-0.80;99.90;;;;;;5060411;28;20028;-72
2021/03/03 01:17:08;;;;;;;59.58;25.05;;;-0.80;99.90;;;;;;5076790;28;20056;-72
2021/03/03 01:19:38;;;;;;;69.72;28.02;;;-0.80;99.90;;;;;;5060554;28;20439;-72
2021/03/03 01:22:04;;;;;;;92.85;34.20;;;-0.80;99.90;;;;;;5077692;28;20027;-72
2021/03/03 01:24:30;;;;;;;76.47;30.58;;;-0.70;99.90;;;;;;5078425;28;20484;-72
2021/03/03 01:26:55;;;;;;;63.28;27.95;;;-0.70;99.90;;;;;;5076308;28;20031;-72
2021/03/03 01:29:21;;;;;;;64.65;27.35;;;-0.60;99.90;;;;;;5058946;28;20063;-72
2021/03/03 01:31:47;;;;;;;55.88;24.67;;;-0.60;99.90;;;;;;5072309;28;20067;-72
2021/03/03 01:34:12;;;;;;;56.25;23.75;;;-0.60;99.90;;;;;;5077667;28;20036;-72
2021/03/03 01:36:38;;;;;;;55.13;23.13;;;-0.60;99.90;;;;;;5058112;28;20504;-74
2021/03/03 01:39:04;;;;;;;52.78;22.55;;;-0.70;99.90;;;;;;5077039;28;20401;-72
2021/03/03 01:41:30;;;;;;;49.22;21.92;;;-0.70;99.90;;;;;;5058974;28;20403;-72
2021/03/03 01:43:55;;;;;;;44.35;20.88;;;-0.80;99.90;;;;;;5075114;28;20028;-72
2021/03/03 01:46:22;;;;;;;48.63;20.58;;;-0.80;99.90;;;;;;5059050;28;20031;-72
2021/03/03 01:48:48;;;;;;;45.33;21.08;;;-0.90;99.90;;;;;;5076396;28;20040;-72
2021/03/03 01:51:15;;;;;;;41.80;18.40;;;-0.90;99.90;;;;;;5076062;28;20039;-72
2021/03/03 01:53:41;;;;;;;46.50;19.90;;;-1.00;99.90;;;;;;5074743;28;20024;-72
2021/03/03 01:56:07;;;;;;;39.90;19.45;;;-1.00;99.90;;;;;;5076907;28;20040;-72
2021/03/03 01:58:32;;;;;;;45.13;20.88;;;-1.10;99.90;;;;;;5059134;28;20036;-72
2021/03/03 02:00:58;;;;;;;48.80;22.13;;;-1.10;99.90;;;;;;5075531;28;20061;-72
2021/03/03 02:03:24;;;;;;;51.95;22.25;;;-0.90;99.90;;;;;;5077354;28;20496;-72
2021/03/03 02:05:58;;;;;;;50.15;23.15;;;-0.90;99.90;;;;;;5074539;28;20467;-71
2021/03/03 02:08:35;;;;;;;55.78;25.35;;;-0.90;99.90;;;;;;5075967;28;20520;-72
2021/03/03 02:11:06;;;;;;;54.10;22.35;;;-0.90;99.90;;;;;;5075436;28;20032;-72
2021/03/03 02:13:41;;;;;;;51.88;21.50;;;-0.90;99.90;;;;;;5075898;28;20032;-72
2021/03/03 02:16:10;;;;;;;47.03;22.27;;;-0.90;99.90;;;;;;5075011;28;20040;-71
2021/03/03 02:18:37;;;;;;;46.05;21.48;;;-1.00;99.90;;;;;;5075858;28;20056;-71
2021/03/03 02:21:16;;;;;;;41.35;19.08;;;-1.00;99.90;;;;;;5057580;28;20127;-71
2021/03/03 02:24:10;;;;;;;44.30;19.40;;;-1.00;99.90;;;;;;5075591;28;20039;-72
2021/03/03 02:26:37;;;;;;;39.38;19.48;;;-1.10;99.90;;;;;;5073870;28;20042;-71
2021/03/03 02:29:06;;;;;;;46.33;20.27;;;-1.20;99.90;;;;;;5075081;28;20031;-71
2021/03/03 02:31:33;;;;;;;41.70;18.83;;;-1.20;99.90;;;;;;5057045;28;20031;-72
2021/03/03 02:34:01;;;;;;;45.38;19.88;;;-1.10;99.90;;;;;;5072112;28;20130;-71
2021/03/03 02:36:28;;;;;;;42.08;20.35;;;-1.00;99.90;;;;;;5074600;28;20050;-71
2021/03/03 02:38:53;;;;;;;46.53;20.33;;;-1.00;99.90;;;;;;5075484;28;20082;-71
2021/03/03 02:41:19;;;;;;;42.45;19.08;;;-1.00;99.90;;;;;;5074743;28;20710;-71
2021/03/03 02:43:45;;;;;;;44.33;21.05;;;-1.00;99.90;;;;;;5074459;28;20031;-71
2021/03/03 02:46:12;;;;;;;42.05;19.45;;;-1.10;99.90;;;;;;5057110;28;20032;-71
2021/03/03 02:48:38;;;;;;;53.13;21.38;;;-1.10;99.90;;;;;;5057503;28;20042;-71
2021/03/03 02:51:05;;;;;;;56.97;22.08;;;-1.10;99.90;;;;;;5075668;28;20074;-71
2021/03/03 02:53:31;;;;;;;51.65;21.70;;;-1.00;99.90;;;;;;5073470;28;20833;-71
2021/03/03 02:55:57;;;;;;;59.47;23.73;;;-0.90;99.90;;;;;;5056897;28;20104;-71
2021/03/03 02:58:23;;;;;;;54.22;22.98;;;-0.90;99.90;;;;;;5074448;28;20028;-71
2021/03/03 03:00:54;;;;;;;58.35;23.88;;;-0.80;99.90;;;;;;5075222;28;20024;-71
2021/03/03 03:03:27;;;;;;;63.03;24.33;;;-0.70;99.90;;;;;;5075238;28;20518;-71
2021/03/03 03:06:02;;;;;;;51.22;21.48;;;-0.60;99.90;;;;;;5055723;28;20036;-71
2021/03/03 03:08:30;;;;;;;51.70;19.95;;;-0.60;99.90;;;;;;5075108;28;20114;-71
2021/03/03 03:11:00;;;;;;;55.17;22.42;;;-0.80;99.90;;;;;;5057385;28;20036;-71
2021/03/03 03:13:28;;;;;;;50.78;20.60;;;-0.90;99.90;;;;;;5074547;28;20055;-71
2021/03/03 03:15:55;;;;;;;42.58;19.23;;;-0.90;99.90;;;;;;5074081;28;20039;-71
2021/03/03 03:18:49;;;;;;;39.05;18.55;;;-1.00;99.90;;;;;;5057734;28;20039;-70
2021/03/03 03:21:16;;;;;;;44.08;19.52;;;-1.20;99.90;;;;;;5056658;28;20255;-71
2021/03/03 03:23:43;;;;;;;41.65;18.20;;;-1.20;99.90;;;;;;5076208;28;20040;-71
2021/03/03 03:26:09;;;;;;;39.00;17.42;;;-1.30;99.90;;;;;;5057703;28;20031;-71
2021/03/03 03:28:39;;;;;;;40.83;18.10;;;-1.30;99.90;;;;;;5079761;28;20035;-71
2021/03/03 03:31:09;;;;;;;42.92;19.05;;;-1.20;99.90;;;;;;5079768;28;20056;-72
2021/03/03 03:33:37;;;;;;;58.78;20.90;;;-1.00;99.90;;;;;;5061832;28;20036;-72
2021/03/03 03:36:04;;;;;;;52.72;20.88;;;-0.70;99.90;;;;;;5060967;28;20039;-71
2021/03/03 03:38:31;;;;;;;55.42;20.58;;;-0.50;99.90;;;;;;5078608;28;20498;-72
2021/03/03 03:41:05;;;;;;;57.67;20.98;;;-0.40;99.90;;;;;;5062027;28;20036;-71
2021/03/03 03:43:33;;;;;;;52.90;21.50;;;-0.40;99.90;;;;;;5060868;28;20498;-72
2021/03/03 03:46:04;;;;;;;52.30;21.52;;;-0.40;99.90;;;;;;5061108;28;20055;-71
2021/03/03 03:48:33;;;;;;;51.40;20.77;;;-0.50;99.90;;;;;;5079816;28;20070;-71
2021/03/03 03:51:05;;;;;;;47.45;20.48;;;-0.70;99.90;;;;;;5060940;28;20262;-71
2021/03/03 03:53:31;;;;;;;43.53;19.90;;;-0.90;99.90;;;;;;5079464;28;20114;-71
2021/03/03 03:55:57;;;;;;;46.13;20.25;;;-1.10;99.90;;;;;;5060297;28;20065;-71
2021/03/03 03:58:23;;;;;;;46.50;21.90;;;-1.20;99.90;;;;;;5078960;28;20037;-71
2021/03/03 04:00:49;;;;;;;56.35;22.95;;;-1.30;99.90;;;;;;5061183;28;20031;-71
2021/03/03 04:03:14;;;;;;;46.20;21.52;;;-1.40;99.90;;;;;;5061312;28;20039;-71
2021/03/03 04:05:40;;;;;;;48.17;22.30;;;-1.40;99.90;;;;;;5060423;28;20032;-71
2021/03/03 04:08:06;;;;;;;49.65;22.85;;;-1.50;99.90;;;;;;5078796;28;20028;-71
2021/03/03 04:10:32;;;;;;;57.20;25.38;;;-1.60;99.90;;;;;;5077576;28;20210;-73
2021/03/03 04:12:58;;;;;;;52.85;24.92;;;-1.60;99.90;;;;;;5060205;28;20082;-70
2021/03/03 04:15:24;;;;;;;50.25;22.88;;;-1.60;99.90;;;;;;5078877;28;20074;-70
2021/03/03 04:17:50;;;;;;;47.50;22.48;;;-1.70;99.90;;;;;;5078285;28;20034;-70
2021/03/03 04:20:17;;;;;;;53.63;23.55;;;-1.70;99.90;;;;;;5043539;28;20032;-70
2021/03/03 04:22:43;;;;;;;62.33;25.13;;;-1.70;99.90;;;;;;5060776;28;20039;-70
2021/03/03 04:25:11;;;;;;;47.45;20.90;;;-1.70;99.90;;;;;;5077747;28;20031;-70
2021/03/03 04:27:38;;;;;;;51.72;22.52;;;-1.70;99.90;;;;;;5075800;28;20223;-72
2021/03/03 04:30:05;;;;;;;50.70;22.13;;;-1.70;99.90;;;;;;5078721;28;20664;-71
2021/03/03 04:32:31;;;;;;;54.20;23.20;;;-1.60;99.90;;;;;;5042918;28;20147;-71
2021/03/03 04:34:57;;;;;;;58.30;23.15;;;-1.50;99.90;;;;;;5077822;28;20788;-71
2021/03/03 04:37:23;;;;;;;58.03;22.88;;;-1.40;99.90;;;;;;5059932;28;20551;-71
2021/03/03 04:39:48;;;;;;;55.10;22.98;;;-1.40;99.90;;;;;;5078471;28;20396;-71
2021/03/03 04:42:14;;;;;;;63.33;26.45;;;-1.30;99.90;;;;;;5078375;28;20032;-71
2021/03/03 04:44:40;;;;;;;66.97;24.67;;;-1.20;99.90;;;;;;5078498;28;20697;-71
2021/03/03 04:47:05;;;;;;;57.72;23.85;;;-1.20;99.90;;;;;;5059678;28;20587;-71
2021/03/03 04:49:31;;;;;;;54.85;22.85;;;-1.20;99.90;;;;;;5059806;28;20063;-71
2021/03/03 04:51:57;;;;;;;50.70;22.40;;;-1.30;99.90;;;;;;5078082;28;20385;-71
2021/03/03 04:54:22;;;;;;;53.55;21.98;;;-1.30;99.90;;;;;;5076343;28;20377;-71
2021/03/03 04:56:48;;;;;;;58.97;24.90;;;-1.20;99.90;;;;;;5076465;28;20036;-71
2021/03/03 04:59:14;;;;;;;61.33;25.02;;;-1.20;99.90;;;;;;5059259;28;20039;-71
2021/03/03 05:01:40;;;;;;;63.83;26.90;;;-1.20;99.90;;;;;;5059145;28;20039;-71
2021/03/03 05:04:05;;;;;;;55.90;25.55;;;-1.30;99.90;;;;;;5059058;28;20031;-70
2021/03/03 05:06:31;;;;;;;61.42;25.52;;;-1.40;99.90;;;;;;5059436;28;20036;-71
2021/03/03 05:08:57;;;;;;;53.10;24.05;;;-1.30;99.90;;;;;;5053229;28;20630;-71
2021/03/03 05:11:22;;;;;;;57.05;22.80;;;-1.30;99.90;;;;;;5071694;28;20028;-71
2021/03/03 05:13:49;;;;;;;58.33;24.42;;;-1.30;99.90;;;;;;5075703;28;20039;-71
2021/03/03 05:16:14;;;;;;;59.70;23.27;;;-1.30;99.90;;;;;;5056435;28;20032;-71
2021/03/03 05:18:40;;;;;;;67.55;25.33;;;-1.20;99.90;;;;;;5076587;28;20876;-71
2021/03/03 05:21:06;;;;;;;106.63;27.95;;;-1.10;99.90;;;;;;5058041;28;20135;-71
2021/03/03 05:23:34;;;;;;;88.38;24.75;;;-1.00;99.90;;;;;;5058760;28;20548;-71
2021/03/03 05:26:01;;;;;;;85.30;23.05;;;-1.20;99.90;;;;;;5058444;28;20646;-71
2021/03/03 05:28:28;;;;;;;66.20;20.88;;;-1.50;99.90;;;;;;5059486;28;20556;-71
2021/03/03 05:30:54;;;;;;;66.10;22.77;;;-1.70;99.90;;;;;;5074337;28;20051;-71
2021/03/03 05:33:27;;;;;;;49.33;20.25;;;-1.70;99.90;;;;;;5075267;28;20040;-71
2021/03/03 05:35:55;;;;;;;63.08;22.30;;;-1.80;99.90;;;;;;5072504;28;20036;-71
2021/03/03 05:38:20;;;;;;;70.80;23.17;;;-1.80;99.90;;;;;;5055150;28;20130;-70
2021/03/03 05:40:48;;;;;;;52.30;20.63;;;-1.80;99.90;;;;;;5074296;28;20032;-71
2021/03/03 05:43:14;;;;;;;52.70;21.70;;;-1.80;99.90;;;;;;5069937;28;20131;-71
2021/03/03 05:45:44;;;;;;;56.10;21.08;;;-1.80;99.90;;;;;;5037199;28;20033;-70
2021/03/03 05:48:31;;;;;;;61.13;23.70;;;-1.70;99.90;;;;;;5075950;28;20040;-70
2021/03/03 05:51:03;;;;;;;57.88;23.27;;;-1.50;99.90;;;;;;5049825;28;20036;-70
2021/03/03 05:53:30;;;;;;;51.95;21.55;;;-1.40;99.90;;;;;;5070923;28;20104;-70
2021/03/03 05:56:03;;;;;;;55.47;22.08;;;-1.30;99.90;;;;;;5057482;28;20759;-70
2021/03/03 05:58:32;;;;;;;54.80;21.95;;;-1.20;99.90;;;;;;5054542;28;20117;-70
2021/03/03 06:01:00;;;;;;;56.35;22.40;;;-1.10;99.90;;;;;;5075788;28;20074;-70
2021/03/03 06:03:26;;;;;;;50.50;21.20;;;-1.10;99.90;;;;;;5067336;28;20028;-70
2021/03/03 06:05:53;;;;;;;61.47;24.15;;;-1.00;99.90;;;;;;5074486;28;20050;-70
2021/03/03 06:08:20;;;;;;;64.07;25.10;;;-0.90;99.90;;;;;;5049982;28;20127;-71
2021/03/03 06:10:46;;;;;;;63.80;24.52;;;-0.80;99.90;;;;;;5066884;28;20043;-70
2021/03/03 06:13:13;;;;;;;67.25;26.23;;;-0.80;99.90;;;;;;5068650;28;20035;-71
2021/03/03 06:15:40;;;;;;;66.82;25.42;;;-0.70;99.90;;;;;;5053501;28;20129;-71
2021/03/03 06:18:07;;;;;;;63.33;25.63;;;-0.70;99.90;;;;;;5072602;28;20084;-70
2021/03/03 06:20:39;;;;;;;56.95;22.73;;;-0.80;99.90;;;;;;5049870;28;20046;-70
2021/03/03 06:23:31;;;;;;;64.55;23.60;;;-0.90;99.90;;;;;;5075896;28;20561;-71
2021/03/03 06:25:56;;;;;;;62.88;24.33;;;-0.90;99.90;;;;;;5040533;28;20066;-71
2021/03/03 06:28:37;;;;;;;66.70;26.33;;;-0.80;99.90;;;;;;5056591;28;20563;-71
2021/03/03 06:31:25;;;;;;;76.97;28.33;;;-0.80;99.90;;;;;;5057162;28;20051;-71
2021/03/03 06:33:52;;;;;;;79.88;29.77;;;-0.60;99.90;;;;;;5072068;28;20816;-71
2021/03/03 06:36:26;;;;;;;77.03;28.77;;;-0.50;99.90;;;;;;5073187;28;20043;-70
2021/03/03 06:38:53;;;;;;;55.13;21.57;;;-0.50;99.90;;;;;;5054567;28;20046;-70
2021/03/03 06:41:19;;;;;;;86.03;32.80;;;-0.40;99.90;;;;;;5057475;28;20500;-71
2021/03/03 06:43:58;;;;;;;76.15;32.20;;;-0.30;99.90;;;;;;5032789;28;20035;-70
2021/03/03 06:46:25;;;;;;;67.10;27.23;;;-0.20;99.90;;;;;;5074836;28;20043;-75
2021/03/03 06:48:50;;;;;;;72.82;27.55;;;-0.10;99.90;;;;;;5054487;28;20063;-70
2021/03/03 06:51:20;;;;;;;59.92;23.42;;;-0.10;99.90;;;;;;5069743;28;20203;-81
2021/03/03 06:53:46;;;;;;;51.38;22.38;;;0.00;99.90;;;;;;5035821;28;20085;-72
2021/03/03 06:56:12;;;;;;;52.97;24.17;;;-0.10;99.90;;;;;;5071754;28;20044;-72
2021/03/03 06:58:38;;;;;;;67.65;25.92;;;-0.10;99.90;;;;;;5049278;28;20044;-72
2021/03/03 07:01:04;;;;;;;65.00;27.23;;;0.00;99.90;;;;;;5046566;28;20095;-72
2021/03/03 07:03:34;;;;;;;63.10;26.15;;;0.10;99.90;;;;;;5076296;28;20097;-72
2021/03/03 07:06:01;;;;;;;66.78;27.55;;;0.30;99.90;;;;;;5057784;28;20055;-73
2021/03/03 07:08:27;;;;;;;67.97;27.08;;;0.40;99.90;;;;;;5048983;28;20149;-70
2021/03/03 07:10:53;;;;;;;65.55;26.83;;;0.50;99.90;;;;;;5068455;28;20147;-71
2021/03/03 07:13:35;;;;;;;69.40;26.38;;;0.60;99.90;;;;;;5072461;28;20036;-70
2021/03/03 07:16:05;;;;;;;60.80;26.73;;;0.70;99.90;;;;;;5074793;28;20032;-70
2021/03/03 07:18:35;;;;;;;63.60;25.13;;;0.90;99.90;;;;;;5053468;28;20874;-71
2021/03/03 07:21:01;;;;;;;66.78;25.75;;;1.00;99.90;;;;;;5075222;28;20029;-71
2021/03/03 07:23:50;;;;;;;59.80;26.80;;;1.10;99.90;;;;;;5066478;28;20032;-71
2021/03/03 07:26:17;;;;;;;59.00;25.65;;;1.10;99.90;;;;;;5071242;28;20028;-72
2021/03/03 07:28:43;;;;;;;62.08;26.20;;;1.20;99.90;;;;;;5075653;28;20039;-72
2021/03/03 07:31:11;;;;;;;51.45;23.75;;;1.30;99.90;;;;;;5075744;28;20028;-72
2021/03/03 07:33:38;;;;;;;50.25;21.98;;;1.40;99.90;;;;;;5075106;28;20036;-72
2021/03/03 07:36:06;;;;;;;48.90;21.38;;;1.60;99.90;;;;;;5066554;28;20559;-73
2021/03/03 07:38:35;;;;;;;43.95;19.35;;;1.80;99.90;;;;;;5075593;28;20185;-71
2021/03/03 07:41:07;;;;;;;42.83;19.70;;;2.00;99.90;;;;;;5069123;28;20071;-72
2021/03/03 07:43:34;;;;;;;41.95;20.13;;;2.40;99.90;;;;;;5068196;28;20729;-72
2021/03/03 07:46:08;;;;;;;53.00;19.98;;;2.80;99.90;;;;;;5050916;28;20114;-72
2021/03/03 07:48:35;;;;;;;41.35;19.48;;;3.00;99.90;;;;;;5066352;28;20070;-72
2021/03/03 07:51:04;;;;;;;34.60;18.20;;;3.00;99.90;;;;;;5050615;28;20105;-72
2021/03/03 07:53:30;;;;;;;36.35;17.00;;;3.10;99.90;;;;;;5075714;28;20036;-72
2021/03/03 07:56:01;;;;;;;37.28;17.48;;;3.40;99.90;;;;;;5075474;28;20111;-72
2021/03/03 07:58:27;;;;;;;39.88;20.50;;;3.50;99.90;;;;;;5054348;28;20027;-72
2021/03/03 08:00:53;;;;;;;36.28;18.20;;;3.70;99.90;;;;;;5070178;28;20455;-72
2021/03/03 08:03:45;;;;;;;39.67;19.13;;;3.70;99.90;;;;;;5038440;28;20142;-72
2021/03/03 08:06:20;;;;;;;38.78;19.10;;;3.90;99.90;;;;;;5072170;28;20581;-72
2021/03/03 08:09:19;;;;;;;33.28;17.77;;;4.30;99.90;;;;;;5056531;28;20035;-72
2021/03/03 08:12:00;;;;;;;37.20;18.80;;;4.60;99.90;;;;;;5037215;28;20044;-72
2021/03/03 08:14:37;;;;;;;38.25;18.00;;;4.60;99.90;;;;;;5076784;28;20074;-72
2021/03/03 08:17:08;;;;;;;39.40;19.10;;;5.00;99.90;;;;;;5078396;28;20094;-72
2021/03/03 08:19:49;;;;;;;32.55;16.55;;;5.30;99.90;;;;;;5060108;28;20032;-72
2021/03/03 08:22:15;;;;;;;33.78;16.98;;;5.40;99.90;;;;;;5074646;28;20020;-72
2021/03/03 08:24:40;;;;;;;36.40;18.50;;;5.40;99.90;;;;;;5076834;28;20070;-72
2021/03/03 08:27:31;;;;;;;34.47;17.67;;;5.20;99.90;;;;;;5074774;28;20150;-72
2021/03/03 08:30:11;;;;;;;36.92;18.77;;;5.40;99.90;;;;;;5069097;28;20067;-71
2021/03/03 08:32:38;;;;;;;38.92;18.95;;;5.70;99.90;;;;;;5068561;28;20035;-72
2021/03/03 08:35:04;;;;;;;36.35;19.13;;;6.20;99.90;;;;;;5072156;28;20047;-70
2021/03/03 08:37:32;;;;;;;34.75;19.65;;;6.50;99.90;;;;;;5050971;28;20485;-72
2021/03/03 08:39:58;;;;;;;37.08;19.42;;;6.40;99.90;;;;;;5059802;28;20105;-72
2021/03/03 08:42:35;;;;;;;39.38;19.90;;;6.60;99.90;;;;;;5074941;28;20028;-71
2021/03/03 08:45:07;;;;;;;43.42;21.63;;;6.70;99.90;;;;;;5068452;28;20089;-74
2021/03/03 08:47:54;;;;;;;38.03;20.15;;;7.10;99.90;;;;;;5063915;28;20609;-72
2021/03/03 08:50:32;;;;;;;46.50;21.67;;;7.50;99.90;;;;;;5073139;28;20555;-71
2021/03/03 08:53:17;;;;;;;42.20;21.17;;;7.80;99.90;;;;;;5077639;28;20067;-72
2021/03/03 08:55:42;;;;;;;43.28;21.67;;;8.00;99.90;;;;;;5069278;28;20028;-72
2021/03/03 08:58:33;;;;;;;44.17;21.48;;;8.10;99.90;;;;;;5048145;28;20121;-72
2021/03/03 09:01:00;;;;;;;50.10;23.25;;;7.90;99.90;;;;;;5075254;28;20524;-72
2021/03/03 09:03:26;;;;;;;40.30;21.30;;;8.20;99.90;;;;;;5049585;28;20032;-79
2021/03/03 09:05:55;;;;;;;43.45;22.83;;;8.40;99.90;;;;;;5066952;28;20705;-73
2021/03/03 09:08:22;;;;;;;45.95;23.40;;;8.70;99.90;;;;;;5072449;28;20025;-77
2021/03/03 09:10:48;;;;;;;42.30;22.02;;;9.00;99.90;;;;;;5075377;28;20458;-77
2021/03/03 09:13:29;;;;;;;45.30;25.45;;;9.00;99.90;;;;;;5072818;28;20063;-77
2021/03/03 09:16:06;;;;;;;48.92;24.05;;;9.20;99.90;;;;;;5076654;28;20791;-77
2021/03/03 09:18:32;;;;;;;48.38;24.42;;;9.00;99.90;;;;;;5058865;28;20123;-77
2021/03/03 09:21:09;;;;;;;49.85;24.77;;;9.30;99.90;;;;;;5068533;28;20035;-77
2021/03/03 09:23:36;;;;;;;49.20;24.75;;;9.50;99.90;;;;;;5074812;28;20040;-76
2021/03/03 09:26:16;;;;;;;50.05;25.23;;;9.60;99.90;;;;;;5071255;28;20056;-75
2021/03/03 09:28:42;;;;;;;47.35;24.75;;;9.30;99.90;;;;;;5077533;28;20082;-75
2021/03/03 09:31:08;;;;;;;48.38;25.65;;;9.40;99.90;;;;;;5077015;28;20134;-75
2021/03/03 09:33:34;;;;;;;52.58;25.67;;;9.50;99.90;;;;;;5070625;28;20048;-74
2021/03/03 09:36:00;;;;;;;52.22;26.95;;;9.40;99.90;;;;;;5072715;28;20089;-79
2021/03/03 09:38:30;;;;;;;49.45;25.63;;;9.60;99.90;;;;;;5053116;28;20085;-79
2021/03/03 09:41:08;;;;;;;51.38;26.88;;;9.90;99.90;;;;;;5041741;28;20063;-79
2021/03/03 09:43:33;;;;;;;52.85;26.90;;;10.10;99.90;;;;;;5059796;28;20102;-80
2021/03/03 09:45:59;;;;;;;52.25;27.15;;;10.20;99.90;;;;;;5056291;28;20028;-79
2021/03/03 09:48:28;;;;;;;56.47;28.00;;;10.50;99.90;;;;;;5070344;28;20127;-80
2021/03/03 09:50:57;;;;;;;51.92;26.83;;;10.40;99.90;;;;;;5069835;28;20032;-77
2021/03/03 09:53:22;;;;;;;54.83;28.15;;;10.50;99.90;;;;;;5065467;28;20059;-79
2021/03/03 09:55:48;;;;;;;60.42;29.23;;;10.70;99.90;;;;;;5064568;28;20822;-80
2021/03/03 09:58:14;;;;;;;62.35;30.88;;;10.80;99.90;;;;;;5064777;28;20761;-76
2021/03/03 10:00:40;;;;;;;56.90;28.63;;;11.10;99.90;;;;;;5067402;28;20570;-79
2021/03/03 10:03:10;;;;;;;58.60;29.52;;;11.20;99.90;;;;;;5049818;28;20491;-81
2021/03/03 10:05:37;;;;;;;57.55;29.77;;;11.30;99.90;;;;;;5068585;28;20388;-78
2021/03/03 10:08:08;;;;;;;61.97;30.00;;;11.50;99.90;;;;;;5069076;28;20036;-79
2021/03/03 10:10:36;;;;;;;56.38;29.17;;;11.60;99.90;;;;;;5061481;28;20041;-79
2021/03/03 10:13:03;;;;;;;56.75;30.20;;;11.50;99.90;;;;;;5056533;28;20043;-79
2021/03/03 10:15:34;;;;;;;56.08;29.90;;;11.60;99.90;;;;;;5076287;28;20105;-78
2021/03/03 10:18:05;;;;;;;61.58;29.52;;;11.70;99.90;;;;;;5056568;28;20229;-80
2021/03/03 10:20:51;;;;;;;60.17;29.65;;;12.00;99.90;;;;;;5058238;28;20035;-79
2021/03/03 10:23:19;;;;;;;53.47;29.13;;;12.00;99.90;;;;;;5069405;28;20127;-80
2021/03/03 10:25:51;;;;;;;60.60;30.25;;;12.00;99.90;;;;;;5050431;28;20110;-80
2021/03/03 10:28:22;;;;;;;53.95;28.98;;;12.20;99.90;;;;;;5061406;28;20616;-78
2021/03/03 10:30:55;;;;;;;55.05;28.75;;;12.30;99.90;;;;;;5071864;28;20152;-77
2021/03/03 10:33:27;;;;;;;57.80;29.45;;;12.30;99.90;;;;;;5074318;28;20111;-79
2021/03/03 10:35:54;;;;;;;52.97;28.15;;;12.20;99.90;;;;;;5073820;28;20063;-79
2021/03/03 10:38:22;;;;;;;57.28;28.98;;;12.40;99.90;;;;;;5063426;28;20087;-83
2021/03/03 10:40:50;;;;;;;53.97;28.85;;;12.50;99.90;;;;;;5070028;28;20117;-78
2021/03/03 10:43:21;;;;;;;55.33;28.42;;;12.50;99.90;;;;;;5073092;28;20037;-78
2021/03/03 10:45:49;;;;;;;55.28;29.17;;;12.70;99.90;;;;;;5074692;28;20736;-78
2021/03/03 10:48:31;;;;;;;49.65;27.50;;;12.90;99.90;;;;;;5068955;28;20031;-78
2021/03/03 10:51:04;;;;;;;56.65;27.83;;;13.20;99.90;;;;;;5054683;28;20115;-78
2021/03/03 10:53:48;;;;;;;53.60;28.83;;;13.20;99.90;;;;;;5070365;28;20770;-78
2021/03/03 10:56:38;;;;;;;55.53;28.35;;;13.30;99.90;;;;;;5070679;28;20456;-77
2021/03/03 10:59:09;;;;;;;53.42;27.65;;;13.60;99.40;;;;;;5051192;28;20073;-76
2021/03/03 11:02:02;;;;;;;48.88;27.63;;;13.70;99.00;;;;;;5070918;28;20480;-78
2021/03/03 11:04:41;;;;;;;49.60;26.80;;;13.90;98.90;;;;;;5069748;28;20036;-79
2021/03/03 11:07:08;;;;;;;54.15;27.90;;;14.00;97.90;;;;;;5065972;28;20134;-78
2021/03/03 11:09:35;;;;;;;54.22;24.95;;;14.10;97.60;;;;;;5065443;28;20042;-78
2021/03/03 11:12:02;;;;;;;54.30;26.90;;;14.50;96.90;;;;;;5075893;28;20163;-78
2021/03/03 11:14:29;;;;;;;51.72;25.67;;;14.80;95.90;;;;;;5067064;28;20063;-80
2021/03/03 11:16:57;;;;;;;50.60;25.92;;;14.70;96.10;;;;;;5034035;28;20395;-80
2021/03/03 11:19:23;;;;;;;54.50;27.05;;;14.70;95.40;;;;;;5072248;28;20078;-80
2021/03/03 11:21:51;;;;;;;53.45;27.15;;;15.00;95.20;;;;;;5059913;28;20047;-79
2021/03/03 11:24:17;;;;;;;53.28;28.40;;;15.30;94.60;;;;;;5076370;28;20028;-80
2021/03/03 11:26:44;;;;;;;51.08;27.88;;;15.50;94.40;;;;;;5073399;28;20035;-80
2021/03/03 11:29:10;;;;;;;50.92;27.50;;;15.60;93.10;;;;;;5075563;28;20090;-79
2021/03/03 11:31:37;;;;;;;52.33;27.40;;;15.60;93.00;;;;;;5049502;28;20032;-80
2021/03/03 11:34:03;;;;;;;49.50;25.90;;;15.70;92.60;;;;;;5074233;28;20157;-80
2021/03/03 11:36:29;;;;;;;51.15;26.23;;;15.80;92.90;;;;;;5071445;28;20037;-79
2021/03/03 11:38:55;;;;;;;53.28;26.88;;;15.90;92.30;;;;;;5045885;28;20893;-80
2021/03/03 11:41:21;;;;;;;45.03;24.70;;;15.90;92.50;;;;;;5069315;28;20023;-79
2021/03/03 11:43:47;;;;;;;50.05;25.90;;;16.00;91.10;;;;;;5056633;28;20031;-79
2021/03/03 11:46:13;;;;;;;49.92;25.50;;;16.00;90.90;;;;;;5060108;28;20032;-77
2021/03/03 11:48:39;;;;;;;42.00;22.58;;;15.80;91.10;;;;;;5073044;28;20075;-78
2021/03/03 11:51:05;;;;;;;41.30;21.27;;;15.90;90.90;;;;;;5060592;28;20143;-78
2021/03/03 11:53:31;;;;;;;39.15;20.30;;;15.90;89.30;;;;;;5047599;28;20032;-78
2021/03/03 11:55:57;;;;;;;41.20;20.67;;;16.10;85.20;;;;;;5073127;28;20121;-76
2021/03/03 11:58:23;;;;;;;39.80;19.00;;;16.10;85.60;;;;;;5051397;28;20559;-76
2021/03/03 12:00:48;;;;;;;38.88;20.45;;;16.30;83.50;;;;;;5061758;28;20032;-76
2021/03/03 12:03:14;;;;;;;37.28;18.60;;;16.90;81.50;;;;;;5076586;28;20024;-75
2021/03/03 12:05:40;;;;;;;36.05;19.65;;;17.30;76.70;;;;;;5078184;28;20036;-72
2021/03/03 12:08:07;;;;;;;36.33;19.55;;;17.40;76.70;;;;;;5077351;28;20028;-77
2021/03/03 12:10:34;;;;;;;40.65;20.40;;;17.50;72.40;;;;;;5074432;28;20028;-77
2021/03/03 12:13:00;;;;;;;39.20;18.38;;;17.40;74.10;;;;;;5059744;28;20028;-77
2021/03/03 12:15:26;;;;;;;35.22;19.15;;;17.50;72.60;;;;;;5075302;28;20032;-77
2021/03/03 12:17:52;;;;;;;36.03;19.17;;;17.60;70.30;;;;;;5050053;28;20028;-77
2021/03/03 12:20:18;;;;;;;38.17;18.00;;;17.60;71.50;;;;;;5077209;28;20456;-77
2021/03/03 12:22:44;;;;;;;34.90;18.00;;;17.80;68.50;;;;;;5060648;28;20039;-76
2021/03/03 12:25:10;;;;;;;40.53;19.55;;;17.70;69.10;;;;;;5066426;28;20032;-77
2021/03/03 12:27:36;;;;;;;30.13;15.77;;;17.50;71.20;;;;;;5069298;28;20116;-76
2021/03/03 12:30:03;;;;;;;32.20;17.10;;;17.40;70.50;;;;;;5071967;28;20024;-76
2021/03/03 12:32:29;;;;;;;39.50;19.70;;;17.00;69.10;;;;;;5051543;28;20105;-77
2021/03/03 12:34:54;;;;;;;30.92;16.75;;;16.80;69.80;;;;;;5075147;28;20338;-77
2021/03/03 12:37:20;;;;;;;33.25;16.95;;;16.70;70.60;;;;;;5064755;28;20553;-80